sensor_id;sensor_type;location;lat;lon;timestamp;P1;durP1;ratioP1;P2;durP2;ratioP2
84759;SDS011;74983;51.084;11.086;2024-03-08T00:00:45;24.10;;;12.55;;
84759;SDS011;74983;51.084;11.086;2024-03-08T00:03:10;25.80;;;13.20;;
84759;SDS011;74983;51.084;11.086;2024-03-08T00:05:36;25.33;;;13.03;;
84759;SDS011;74983;51.084;11.086;2024-03-08T00:08:03;25.67;;;13.43;;
84759;SDS011;74983;51.084;11.086;2024-03-08T00:10:29;29.60;;;13.18;;
84759;SDS011;74983;51.084;11.086;2024-03-08T00:12:54;25.23;;;12.93;;
84759;SDS011;74983;51.084;11.086;2024-03-08T00:15:20;30.35;;;13.32;;
84759;SDS011;74983;51.084;11.086;2024-03-08T00:17:48;24.27;;;13.00;;
84759;SDS011;74983;51.084;11.086;2024-03-08T00:20:13;25.20;;;13.80;;
84759;SDS011;74983;51.084;11.086;2024-03-08T00:22:38;24.10;;;13.20;;
84759;SDS011;74983;51.084;11.086;2024-03-08T00:25:04;26.73;;;14.73;;
84759;SDS011;74983;51.084;11.086;2024-03-08T00:27:30;27.55;;;14.02;;
84759;SDS011;74983;51.084;11.086;2024-03-08T00:29:57;23.15;;;11.77;;
84759;SDS011;74983;51.084;11.086;2024-03-08T00:32:22;28.92;;;14.13;;
84759;SDS011;74983;51.084;11.086;2024-03-08T00:34:49;28.23;;;13.13;;
84759;SDS011;74983;51.084;11.086;2024-03-08T00:37:16;27.60;;;13.90;;
84759;SDS011;74983;51.084;11.086;2024-03-08T00:39:42;31.90;;;15.43;;
84759;SDS011;74983;51.084;11.086;2024-03-08T00:42:07;27.30;;;13.47;;
84759;SDS011;74983;51.084;11.086;2024-03-08T00:44:33;26.50;;;13.80;;
84759;SDS011;74983;51.084;11.086;2024-03-08T00:46:58;25.53;;;13.37;;
84759;SDS011;74983;51.084;11.086;2024-03-08T00:49:24;25.73;;;14.20;;
84759;SDS011;74983;51.084;11.086;2024-03-08T00:51:49;29.53;;;15.07;;
84759;SDS011;74983;51.084;11.086;2024-03-08T00:54:14;28.63;;;13.87;;
84759;SDS011;74983;51.084;11.086;2024-03-08T00:56:41;26.40;;;13.65;;
84759;SDS011;74983;51.084;11.086;2024-03-08T00:59:06;26.63;;;14.43;;
84759;SDS011;74983;51.084;11.086;2024-03-08T01:01:32;30.42;;;15.00;;
84759;SDS011;74983;51.084;11.086;2024-03-08T01:03:57;26.43;;;13.20;;
84759;SDS011;74983;51.084;11.086;2024-03-08T01:06:23;28.70;;;13.95;;
84759;SDS011;74983;51.084;11.086;2024-03-08T01:08:48;25.73;;;13.57;;
84759;SDS011;74983;51.084;11.086;2024-03-08T01:11:16;29.77;;;14.00;;
84759;SDS011;74983;51.084;11.086;2024-03-08T01:13:42;27.15;;;14.48;;
84759;SDS011;74983;51.084;11.086;2024-03-08T01:16:08;22.27;;;12.50;;
84759;SDS011;74983;51.084;11.086;2024-03-08T01:18:33;24.67;;;12.00;;
84759;SDS011;74983;51.084;11.086;2024-03-08T01:20:58;23.20;;;12.17;;
84759;SDS011;74983;51.084;11.086;2024-03-08T01:23:23;25.40;;;13.03;;
84759;SDS011;74983;51.084;11.086;2024-03-08T01:25:49;21.83;;;12.77;;
84759;SDS011;74983;51.084;11.086;2024-03-08T01:28:21;26.67;;;14.00;;
84759;SDS011;74983;51.084;11.086;2024-03-08T01:30:47;31.42;;;14.73;;
84759;SDS011;74983;51.084;11.086;2024-03-08T01:33:12;27.08;;;13.40;;
84759;SDS011;74983;51.084;11.086;2024-03-08T01:35:37;23.47;;;12.40;;
84759;SDS011;74983;51.084;11.086;2024-03-08T01:38:06;25.10;;;13.60;;
84759;SDS011;74983;51.084;11.086;2024-03-08T01:40:31;26.57;;;12.87;;
84759;SDS011;74983;51.084;11.086;2024-03-08T01:42:56;24.80;;;12.60;;
84759;SDS011;74983;51.084;11.086;2024-03-08T01:45:22;26.93;;;13.87;;
84759;SDS011;74983;51.084;11.086;2024-03-08T01:47:47;25.87;;;13.20;;
84759;SDS011;74983;51.084;11.086;2024-03-08T01:50:13;28.33;;;13.40;;
84759;SDS011;74983;51.084;11.086;2024-03-08T01:52:38;28.35;;;14.15;;
84759;SDS011;74983;51.084;11.086;2024-03-08T01:55:04;27.63;;;14.40;;
84759;SDS011;74983;51.084;11.086;2024-03-08T01:57:32;26.85;;;12.88;;
84759;SDS011;74983;51.084;11.086;2024-03-08T01:59:58;29.70;;;14.15;;
84759;SDS011;74983;51.084;11.086;2024-03-08T02:36:31;30.85;;;13.88;;
84759;SDS011;74983;51.084;11.086;2024-03-08T02:39:01;32.42;;;14.45;;
84759;SDS011;74983;51.084;11.086;2024-03-08T02:41:27;28.83;;;14.60;;
84759;SDS011;74983;51.084;11.086;2024-03-08T02:43:53;26.47;;;14.17;;
84759;SDS011;74983;51.084;11.086;2024-03-08T02:46:18;29.25;;;15.75;;
84759;SDS011;74983;51.084;11.086;2024-03-08T02:48:43;30.80;;;15.23;;
84759;SDS011;74983;51.084;11.086;2024-03-08T02:51:08;28.43;;;14.47;;
84759;SDS011;74983;51.084;11.086;2024-03-08T02:53:35;36.47;;;17.58;;
84759;SDS011;74983;51.084;11.086;2024-03-08T02:56:00;29.20;;;14.50;;
84759;SDS011;74983;51.084;11.086;2024-03-08T02:58:26;30.50;;;14.77;;
84759;SDS011;74983;51.084;11.086;2024-03-08T03:00:51;25.17;;;13.93;;
84759;SDS011;74983;51.084;11.086;2024-03-08T03:03:16;33.20;;;15.47;;
84759;SDS011;74983;51.084;11.086;2024-03-08T03:05:41;36.37;;;14.77;;
84759;SDS011;74983;51.084;11.086;2024-03-08T03:08:07;32.57;;;14.53;;
84759;SDS011;74983;51.084;11.086;2024-03-08T03:10:33;28.80;;;13.90;;
84759;SDS011;74983;51.084;11.086;2024-03-08T03:12:59;33.63;;;15.73;;
84759;SDS011;74983;51.084;11.086;2024-03-08T03:15:24;34.47;;;15.03;;
84759;SDS011;74983;51.084;11.086;2024-03-08T03:17:50;30.27;;;14.35;;
84759;SDS011;74983;51.084;11.086;2024-03-08T03:20:16;27.15;;;13.88;;
84759;SDS011;74983;51.084;11.086;2024-03-08T03:22:51;29.58;;;15.40;;
84759;SDS011;74983;51.084;11.086;2024-03-08T03:25:17;37.63;;;15.43;;
84759;SDS011;74983;51.084;11.086;2024-03-08T03:27:50;29.63;;;14.82;;
84759;SDS011;74983;51.084;11.086;2024-03-08T03:30:15;36.58;;;16.25;;
84759;SDS011;74983;51.084;11.086;2024-03-08T03:32:47;30.52;;;14.55;;
84759;SDS011;74983;51.084;11.086;2024-03-08T03:35:13;32.15;;;14.40;;
84759;SDS011;74983;51.084;11.086;2024-03-08T03:37:40;33.60;;;15.23;;
84759;SDS011;74983;51.084;11.086;2024-03-08T03:40:07;31.30;;;15.15;;
84759;SDS011;74983;51.084;11.086;2024-03-08T03:42:33;32.22;;;15.63;;
84759;SDS011;74983;51.084;11.086;2024-03-08T03:44:59;31.75;;;15.13;;
84759;SDS011;74983;51.084;11.086;2024-03-08T03:47:24;28.48;;;15.23;;
84759;SDS011;74983;51.084;11.086;2024-03-08T03:49:49;30.30;;;14.80;;
84759;SDS011;74983;51.084;11.086;2024-03-08T03:52:15;34.27;;;14.77;;
84759;SDS011;74983;51.084;11.086;2024-03-08T03:54:40;26.95;;;13.68;;
84759;SDS011;74983;51.084;11.086;2024-03-08T03:57:05;32.07;;;15.93;;
84759;SDS011;74983;51.084;11.086;2024-03-08T03:59:32;33.53;;;15.13;;
84759;SDS011;74983;51.084;11.086;2024-03-08T04:01:58;31.27;;;16.67;;
84759;SDS011;74983;51.084;11.086;2024-03-08T04:04:23;30.97;;;15.33;;
84759;SDS011;74983;51.084;11.086;2024-03-08T04:06:49;31.50;;;15.75;;
84759;SDS011;74983;51.084;11.086;2024-03-08T04:09:16;29.92;;;14.75;;
84759;SDS011;74983;51.084;11.086;2024-03-08T04:11:44;36.63;;;16.08;;
84759;SDS011;74983;51.084;11.086;2024-03-08T04:14:09;26.88;;;14.48;;
84759;SDS011;74983;51.084;11.086;2024-03-08T04:16:35;32.70;;;15.70;;
84759;SDS011;74983;51.084;11.086;2024-03-08T04:19:00;30.90;;;14.83;;
84759;SDS011;74983;51.084;11.086;2024-03-08T04:21:29;27.80;;;14.98;;
84759;SDS011;74983;51.084;11.086;2024-03-08T04:23:55;32.60;;;16.55;;
84759;SDS011;74983;51.084;11.086;2024-03-08T04:26:20;32.47;;;14.63;;
84759;SDS011;74983;51.084;11.086;2024-03-08T04:28:45;31.33;;;14.90;;
84759;SDS011;74983;51.084;11.086;2024-03-08T04:31:11;33.88;;;15.40;;
84759;SDS011;74983;51.084;11.086;2024-03-08T04:33:36;30.47;;;15.73;;
84759;SDS011;74983;51.084;11.086;2024-03-08T04:36:01;35.00;;;15.77;;
84759;SDS011;74983;51.084;11.086;2024-03-08T04:38:29;30.05;;;14.05;;
84759;SDS011;74983;51.084;11.086;2024-03-08T04:40:55;35.38;;;15.93;;
84759;SDS011;74983;51.084;11.086;2024-03-08T04:43:21;39.10;;;17.27;;
84759;SDS011;74983;51.084;11.086;2024-03-08T04:45:50;40.30;;;18.27;;
84759;SDS011;74983;51.084;11.086;2024-03-08T04:48:16;32.90;;;17.20;;
84759;SDS011;74983;51.084;11.086;2024-03-08T04:50:41;34.53;;;16.27;;
84759;SDS011;74983;51.084;11.086;2024-03-08T04:53:06;33.80;;;14.83;;
84759;SDS011;74983;51.084;11.086;2024-03-08T04:55:33;34.85;;;16.45;;
84759;SDS011;74983;51.084;11.086;2024-03-08T04:57:59;39.75;;;17.67;;
84759;SDS011;74983;51.084;11.086;2024-03-08T05:00:24;37.00;;;17.07;;
84759;SDS011;74983;51.084;11.086;2024-03-08T05:02:50;35.92;;;16.38;;
84759;SDS011;74983;51.084;11.086;2024-03-08T05:05:18;32.20;;;15.45;;
84759;SDS011;74983;51.084;11.086;2024-03-08T05:07:43;38.50;;;16.63;;
84759;SDS011;74983;51.084;11.086;2024-03-08T05:10:10;42.22;;;19.13;;
84759;SDS011;74983;51.084;11.086;2024-03-08T05:12:36;36.35;;;17.75;;
84759;SDS011;74983;51.084;11.086;2024-03-08T05:15:03;41.15;;;18.27;;
84759;SDS011;74983;51.084;11.086;2024-03-08T05:17:30;33.00;;;16.10;;
84759;SDS011;74983;51.084;11.086;2024-03-08T05:19:55;40.87;;;18.60;;
84759;SDS011;74983;51.084;11.086;2024-03-08T05:22:20;40.10;;;16.47;;
84759;SDS011;74983;51.084;11.086;2024-03-08T05:24:46;40.07;;;17.17;;
84759;SDS011;74983;51.084;11.086;2024-03-08T05:27:11;36.10;;;17.63;;
84759;SDS011;74983;51.084;11.086;2024-03-08T05:29:37;44.60;;;16.60;;
84759;SDS011;74983;51.084;11.086;2024-03-08T05:32:03;33.43;;;15.40;;
84759;SDS011;74983;51.084;11.086;2024-03-08T05:34:29;34.70;;;16.80;;
84759;SDS011;74983;51.084;11.086;2024-03-08T05:36:54;35.22;;;16.33;;
84759;SDS011;74983;51.084;11.086;2024-03-08T05:39:20;34.37;;;17.00;;
84759;SDS011;74983;51.084;11.086;2024-03-08T05:41:45;36.00;;;15.63;;
84759;SDS011;74983;51.084;11.086;2024-03-08T05:44:11;32.72;;;15.02;;
84759;SDS011;74983;51.084;11.086;2024-03-08T05:46:37;31.42;;;16.85;;
84759;SDS011;74983;51.084;11.086;2024-03-08T05:49:03;39.35;;;17.10;;
84759;SDS011;74983;51.084;11.086;2024-03-08T05:51:33;39.60;;;16.70;;
84759;SDS011;74983;51.084;11.086;2024-03-08T05:54:03;34.58;;;15.52;;
84759;SDS011;74983;51.084;11.086;2024-03-08T05:56:30;30.35;;;15.15;;
84759;SDS011;74983;51.084;11.086;2024-03-08T05:58:56;35.25;;;16.15;;
84759;SDS011;74983;51.084;11.086;2024-03-08T06:01:21;33.25;;;16.27;;
84759;SDS011;74983;51.084;11.086;2024-03-08T06:03:47;33.27;;;14.60;;
84759;SDS011;74983;51.084;11.086;2024-03-08T06:06:13;36.40;;;17.38;;
84759;SDS011;74983;51.084;11.086;2024-03-08T06:08:39;40.20;;;17.10;;
84759;SDS011;74983;51.084;11.086;2024-03-08T06:11:05;41.05;;;17.85;;
84759;SDS011;74983;51.084;11.086;2024-03-08T06:13:31;40.28;;;18.15;;
84759;SDS011;74983;51.084;11.086;2024-03-08T06:15:57;39.90;;;17.63;;
84759;SDS011;74983;51.084;11.086;2024-03-08T06:18:22;33.60;;;17.53;;
84759;SDS011;74983;51.084;11.086;2024-03-08T06:20:47;41.07;;;16.67;;
84759;SDS011;74983;51.084;11.086;2024-03-08T06:23:13;36.30;;;15.90;;
84759;SDS011;74983;51.084;11.086;2024-03-08T06:25:42;35.05;;;16.77;;
84759;SDS011;74983;51.084;11.086;2024-03-08T06:28:08;39.63;;;18.77;;
84759;SDS011;74983;51.084;11.086;2024-03-08T06:30:33;39.30;;;19.03;;
84759;SDS011;74983;51.084;11.086;2024-03-08T06:32:59;36.75;;;18.33;;
84759;SDS011;74983;51.084;11.086;2024-03-08T06:35:25;39.57;;;17.00;;
84759;SDS011;74983;51.084;11.086;2024-03-08T06:37:50;35.63;;;17.67;;
84759;SDS011;74983;51.084;11.086;2024-03-08T06:40:15;39.17;;;17.73;;
84759;SDS011;74983;51.084;11.086;2024-03-08T06:42:41;36.58;;;17.63;;
84759;SDS011;74983;51.084;11.086;2024-03-08T06:45:06;39.58;;;17.92;;
84759;SDS011;74983;51.084;11.086;2024-03-08T06:47:34;40.78;;;19.27;;
84759;SDS011;74983;51.084;11.086;2024-03-08T06:49:59;28.38;;;15.70;;
84759;SDS011;74983;51.084;11.086;2024-03-08T06:52:24;37.97;;;18.40;;
84759;SDS011;74983;51.084;11.086;2024-03-08T06:54:50;36.90;;;17.60;;
84759;SDS011;74983;51.084;11.086;2024-03-08T06:57:17;39.40;;;18.52;;
84759;SDS011;74983;51.084;11.086;2024-03-08T06:59:42;35.55;;;17.05;;
84759;SDS011;74983;51.084;11.086;2024-03-08T07:02:07;36.67;;;17.53;;
84759;SDS011;74983;51.084;11.086;2024-03-08T07:04:36;34.80;;;18.40;;
84759;SDS011;74983;51.084;11.086;2024-03-08T07:07:05;23.23;;;13.10;;
84759;SDS011;74983;51.084;11.086;2024-03-08T07:09:35;41.00;;;20.38;;
84759;SDS011;74983;51.084;11.086;2024-03-08T07:12:00;33.42;;;16.33;;
84759;SDS011;74983;51.084;11.086;2024-03-08T07:14:26;30.40;;;14.68;;
84759;SDS011;74983;51.084;11.086;2024-03-08T07:16:52;22.50;;;12.83;;
84759;SDS011;74983;51.084;11.086;2024-03-08T07:19:17;29.02;;;14.50;;
84759;SDS011;74983;51.084;11.086;2024-03-08T07:21:44;36.28;;;17.95;;
84759;SDS011;74983;51.084;11.086;2024-03-08T07:24:09;25.73;;;13.83;;
84759;SDS011;74983;51.084;11.086;2024-03-08T07:26:54;31.70;;;16.58;;
84759;SDS011;74983;51.084;11.086;2024-03-08T07:29:20;29.58;;;15.73;;
84759;SDS011;74983;51.084;11.086;2024-03-08T07:31:46;33.30;;;17.85;;
84759;SDS011;74983;51.084;11.086;2024-03-08T07:34:34;29.05;;;15.68;;
84759;SDS011;74983;51.084;11.086;2024-03-08T07:36:59;28.10;;;15.23;;
84759;SDS011;74983;51.084;11.086;2024-03-08T07:39:24;27.93;;;14.90;;
84759;SDS011;74983;51.084;11.086;2024-03-08T07:41:49;33.47;;;16.80;;
84759;SDS011;74983;51.084;11.086;2024-03-08T07:44:17;30.27;;;16.95;;
84759;SDS011;74983;51.084;11.086;2024-03-08T07:46:43;33.63;;;16.67;;
84759;SDS011;74983;51.084;11.086;2024-03-08T07:49:08;29.60;;;17.40;;
84759;SDS011;74983;51.084;11.086;2024-03-08T07:51:37;29.55;;;15.55;;
84759;SDS011;74983;51.084;11.086;2024-03-08T07:54:03;33.35;;;17.45;;
84759;SDS011;74983;51.084;11.086;2024-03-08T07:56:32;35.00;;;16.98;;
84759;SDS011;74983;51.084;11.086;2024-03-08T07:58:57;31.43;;;16.57;;
84759;SDS011;74983;51.084;11.086;2024-03-08T08:01:22;36.73;;;18.77;;
84759;SDS011;74983;51.084;11.086;2024-03-08T08:03:48;32.33;;;15.60;;
84759;SDS011;74983;51.084;11.086;2024-03-08T08:06:16;30.90;;;15.98;;
84759;SDS011;74983;51.084;11.086;2024-03-08T08:08:44;30.58;;;18.23;;
84759;SDS011;74983;51.084;11.086;2024-03-08T08:11:10;34.20;;;16.97;;
84759;SDS011;74983;51.084;11.086;2024-03-08T08:13:40;25.60;;;13.82;;
84759;SDS011;74983;51.084;11.086;2024-03-08T08:16:08;35.53;;;18.13;;
84759;SDS011;74983;51.084;11.086;2024-03-08T08:18:34;33.03;;;16.67;;
84759;SDS011;74983;51.084;11.086;2024-03-08T08:21:00;32.95;;;17.77;;
84759;SDS011;74983;51.084;11.086;2024-03-08T08:23:25;27.97;;;15.93;;
84759;SDS011;74983;51.084;11.086;2024-03-08T08:25:51;35.60;;;18.88;;
84759;SDS011;74983;51.084;11.086;2024-03-08T08:28:16;32.20;;;16.10;;
84759;SDS011;74983;51.084;11.086;2024-03-08T08:30:43;30.55;;;16.50;;
84759;SDS011;74983;51.084;11.086;2024-03-08T08:33:08;31.55;;;16.60;;
84759;SDS011;74983;51.084;11.086;2024-03-08T08:35:33;31.40;;;17.33;;
84759;SDS011;74983;51.084;11.086;2024-03-08T08:37:59;29.93;;;15.23;;
84759;SDS011;74983;51.084;11.086;2024-03-08T08:40:24;32.13;;;18.17;;
84759;SDS011;74983;51.084;11.086;2024-03-08T08:42:50;28.15;;;15.68;;
84759;SDS011;74983;51.084;11.086;2024-03-08T08:45:17;29.92;;;16.17;;
84759;SDS011;74983;51.084;11.086;2024-03-08T08:47:43;31.63;;;14.98;;
84759;SDS011;74983;51.084;11.086;2024-03-08T08:50:10;28.73;;;15.88;;
84759;SDS011;74983;51.084;11.086;2024-03-08T08:52:36;23.98;;;12.75;;
84759;SDS011;74983;51.084;11.086;2024-03-08T08:55:03;31.30;;;15.70;;
84759;SDS011;74983;51.084;11.086;2024-03-08T08:57:29;27.17;;;14.82;;
84759;SDS011;74983;51.084;11.086;2024-03-08T08:59:55;31.33;;;16.30;;
84759;SDS011;74983;51.084;11.086;2024-03-08T09:02:21;30.43;;;16.63;;
84759;SDS011;74983;51.084;11.086;2024-03-08T09:04:46;33.70;;;16.63;;
84759;SDS011;74983;51.084;11.086;2024-03-08T09:07:15;24.42;;;14.23;;
84759;SDS011;74983;51.084;11.086;2024-03-08T09:09:43;33.33;;;18.92;;
84759;SDS011;74983;51.084;11.086;2024-03-08T09:12:09;28.95;;;15.68;;
84759;SDS011;74983;51.084;11.086;2024-03-08T09:14:38;29.55;;;16.48;;
84759;SDS011;74983;51.084;11.086;2024-03-08T09:17:03;30.38;;;15.00;;
84759;SDS011;74983;51.084;11.086;2024-03-08T09:19:29;28.07;;;15.57;;
84759;SDS011;74983;51.084;11.086;2024-03-08T09:21:54;27.77;;;15.30;;
84759;SDS011;74983;51.084;11.086;2024-03-08T09:24:19;30.40;;;16.10;;
84759;SDS011;74983;51.084;11.086;2024-03-08T09:26:45;31.33;;;15.23;;
84759;SDS011;74983;51.084;11.086;2024-03-08T09:29:11;24.98;;;14.32;;
84759;SDS011;74983;51.084;11.086;2024-03-08T09:31:36;21.55;;;12.57;;
84759;SDS011;74983;51.084;11.086;2024-03-08T09:34:03;27.13;;;16.25;;
84759;SDS011;74983;51.084;11.086;2024-03-08T09:36:28;29.38;;;15.93;;
84759;SDS011;74983;51.084;11.086;2024-03-08T09:38:54;23.95;;;13.18;;
84759;SDS011;74983;51.084;11.086;2024-03-08T09:41:20;28.70;;;15.03;;
84759;SDS011;74983;51.084;11.086;2024-03-08T09:43:45;29.87;;;15.50;;
84759;SDS011;74983;51.084;11.086;2024-03-08T09:46:11;25.92;;;16.00;;
84759;SDS011;74983;51.084;11.086;2024-03-08T09:48:39;28.13;;;15.73;;
84759;SDS011;74983;51.084;11.086;2024-03-08T09:51:06;28.67;;;15.07;;
84759;SDS011;74983;51.084;11.086;2024-03-08T09:53:32;25.77;;;15.30;;
84759;SDS011;74983;51.084;11.086;2024-03-08T09:55:58;23.45;;;14.23;;
84759;SDS011;74983;51.084;11.086;2024-03-08T09:58:24;26.40;;;14.82;;
84759;SDS011;74983;51.084;11.086;2024-03-08T10:00:58;22.77;;;13.27;;
84759;SDS011;74983;51.084;11.086;2024-03-08T10:03:26;28.30;;;15.73;;
84759;SDS011;74983;51.084;11.086;2024-03-08T10:05:52;25.48;;;13.85;;
84759;SDS011;74983;51.084;11.086;2024-03-08T10:08:21;20.70;;;12.18;;
84759;SDS011;74983;51.084;11.086;2024-03-08T10:10:47;22.45;;;13.85;;
84759;SDS011;74983;51.084;11.086;2024-03-08T10:13:12;25.77;;;14.75;;
84759;SDS011;74983;51.084;11.086;2024-03-08T10:15:39;28.95;;;14.73;;
84759;SDS011;74983;51.084;11.086;2024-03-08T10:18:05;26.52;;;14.85;;
84759;SDS011;74983;51.084;11.086;2024-03-08T10:20:31;26.80;;;15.82;;
84759;SDS011;74983;51.084;11.086;2024-03-08T10:23:02;30.67;;;16.08;;
84759;SDS011;74983;51.084;11.086;2024-03-08T10:25:33;25.48;;;15.02;;
84759;SDS011;74983;51.084;11.086;2024-03-08T10:27:59;25.98;;;15.13;;
84759;SDS011;74983;51.084;11.086;2024-03-08T10:30:24;21.67;;;12.90;;
84759;SDS011;74983;51.084;11.086;2024-03-08T10:32:50;27.07;;;14.77;;
84759;SDS011;74983;51.084;11.086;2024-03-08T10:35:16;25.55;;;14.63;;
84759;SDS011;74983;51.084;11.086;2024-03-08T10:37:45;27.95;;;15.52;;
84759;SDS011;74983;51.084;11.086;2024-03-08T10:40:16;25.25;;;14.70;;
84759;SDS011;74983;51.084;11.086;2024-03-08T10:42:47;24.65;;;14.70;;
84759;SDS011;74983;51.084;11.086;2024-03-08T10:45:30;24.70;;;15.15;;
84759;SDS011;74983;51.084;11.086;2024-03-08T10:50:47;25.38;;;14.77;;
84759;SDS011;74983;51.084;11.086;2024-03-08T10:53:15;23.08;;;13.57;;
84759;SDS011;74983;51.084;11.086;2024-03-08T10:55:42;26.83;;;15.30;;
84759;SDS011;74983;51.084;11.086;2024-03-08T10:58:09;26.92;;;14.13;;
84759;SDS011;74983;51.084;11.086;2024-03-08T11:00:36;30.25;;;15.75;;
84759;SDS011;74983;51.084;11.086;2024-03-08T11:03:02;25.23;;;13.95;;
84759;SDS011;74983;51.084;11.086;2024-03-08T11:05:31;24.27;;;13.88;;
84759;SDS011;74983;51.084;11.086;2024-03-08T11:08:03;29.20;;;15.52;;
84759;SDS011;74983;51.084;11.086;2024-03-08T11:10:49;23.35;;;12.25;;
84759;SDS011;74983;51.084;11.086;2024-03-08T11:13:33;24.50;;;14.15;;
84759;SDS011;74983;51.084;11.086;2024-03-08T11:15:59;24.20;;;13.25;;
84759;SDS011;74983;51.084;11.086;2024-03-08T11:18:25;27.38;;;14.35;;
84759;SDS011;74983;51.084;11.086;2024-03-08T11:20:53;24.83;;;15.27;;
84759;SDS011;74983;51.084;11.086;2024-03-08T11:23:22;25.90;;;14.90;;
84759;SDS011;74983;51.084;11.086;2024-03-08T11:25:48;23.85;;;14.15;;
84759;SDS011;74983;51.084;11.086;2024-03-08T11:33:24;23.42;;;12.73;;
84759;SDS011;74983;51.084;11.086;2024-03-08T11:35:57;24.08;;;14.50;;
84759;SDS011;74983;51.084;11.086;2024-03-08T11:38:28;27.13;;;15.27;;
84759;SDS011;74983;51.084;11.086;2024-03-08T11:40:56;24.30;;;14.80;;
84759;SDS011;74983;51.084;11.086;2024-03-08T11:43:22;25.38;;;14.75;;
84759;SDS011;74983;51.084;11.086;2024-03-08T11:45:47;23.20;;;12.93;;
84759;SDS011;74983;51.084;11.086;2024-03-08T11:48:12;24.30;;;13.53;;
84759;SDS011;74983;51.084;11.086;2024-03-08T11:50:38;25.10;;;13.63;;
84759;SDS011;74983;51.084;11.086;2024-03-08T11:53:03;28.33;;;14.83;;
84759;SDS011;74983;51.084;11.086;2024-03-08T11:55:30;23.45;;;14.93;;
84759;SDS011;74983;51.084;11.086;2024-03-08T11:58:03;24.20;;;13.15;;
84759;SDS011;74983;51.084;11.086;2024-03-08T12:00:29;21.75;;;13.10;;
84759;SDS011;74983;51.084;11.086;2024-03-08T12:03:03;26.65;;;15.43;;
84759;SDS011;74983;51.084;11.086;2024-03-08T12:05:28;24.35;;;13.55;;
84759;SDS011;74983;51.084;11.086;2024-03-08T12:07:56;27.77;;;14.30;;
84759;SDS011;74983;51.084;11.086;2024-03-08T12:10:23;25.70;;;13.40;;
84759;SDS011;74983;51.084;11.086;2024-03-08T12:12:50;29.55;;;15.38;;
84759;SDS011;74983;51.084;11.086;2024-03-08T12:15:21;25.83;;;12.95;;
84759;SDS011;74983;51.084;11.086;2024-03-08T12:17:49;25.85;;;14.25;;
84759;SDS011;74983;51.084;11.086;2024-03-08T12:20:16;26.40;;;14.25;;
84759;SDS011;74983;51.084;11.086;2024-03-08T12:22:43;25.85;;;13.85;;
84759;SDS011;74983;51.084;11.086;2024-03-08T12:25:12;28.85;;;18.83;;
84759;SDS011;74983;51.084;11.086;2024-03-08T12:27:39;24.02;;;12.48;;
84759;SDS011;74983;51.084;11.086;2024-03-08T12:30:21;24.30;;;13.50;;
84759;SDS011;74983;51.084;11.086;2024-03-08T12:32:56;27.88;;;14.95;;
84759;SDS011;74983;51.084;11.086;2024-03-08T12:35:23;22.80;;;13.60;;
84759;SDS011;74983;51.084;11.086;2024-03-08T12:37:50;25.63;;;12.27;;
84759;SDS011;74983;51.084;11.086;2024-03-08T12:40:17;22.83;;;12.27;;
84759;SDS011;74983;51.084;11.086;2024-03-08T12:42:44;25.13;;;13.77;;
84759;SDS011;74983;51.084;11.086;2024-03-08T12:45:12;21.38;;;13.15;;
84759;SDS011;74983;51.084;11.086;2024-03-08T12:47:37;24.83;;;13.88;;
84759;SDS011;74983;51.084;11.086;2024-03-08T12:50:03;25.37;;;12.80;;
84759;SDS011;74983;51.084;11.086;2024-03-08T12:52:28;22.75;;;10.90;;
84759;SDS011;74983;51.084;11.086;2024-03-08T12:54:55;27.45;;;14.35;;
84759;SDS011;74983;51.084;11.086;2024-03-08T12:57:20;26.40;;;12.23;;
84759;SDS011;74983;51.084;11.086;2024-03-08T12:59:45;27.47;;;15.70;;
84759;SDS011;74983;51.084;11.086;2024-03-08T13:02:11;23.93;;;12.83;;
84759;SDS011;74983;51.084;11.086;2024-03-08T13:04:36;19.93;;;12.57;;
84759;SDS011;74983;51.084;11.086;2024-03-08T13:07:02;24.13;;;12.82;;
84759;SDS011;74983;51.084;11.086;2024-03-08T13:09:27;31.38;;;15.27;;
84759;SDS011;74983;51.084;11.086;2024-03-08T13:11:52;33.17;;;14.80;;
84759;SDS011;74983;51.084;11.086;2024-03-08T13:14:20;22.15;;;13.10;;
84759;SDS011;74983;51.084;11.086;2024-03-08T13:16:45;23.13;;;13.40;;
84759;SDS011;74983;51.084;11.086;2024-03-08T13:19:13;28.98;;;13.07;;
84759;SDS011;74983;51.084;11.086;2024-03-08T13:21:38;25.85;;;13.90;;
84759;SDS011;74983;51.084;11.086;2024-03-08T13:24:04;24.88;;;14.32;;
84759;SDS011;74983;51.084;11.086;2024-03-08T13:26:30;29.42;;;13.68;;
84759;SDS011;74983;51.084;11.086;2024-03-08T13:28:57;28.08;;;13.63;;
84759;SDS011;74983;51.084;11.086;2024-03-08T13:31:23;20.48;;;12.43;;
84759;SDS011;74983;51.084;11.086;2024-03-08T13:33:49;23.75;;;12.77;;
84759;SDS011;74983;51.084;11.086;2024-03-08T13:36:16;26.73;;;15.38;;
84759;SDS011;74983;51.084;11.086;2024-03-08T13:38:45;24.37;;;16.60;;
84759;SDS011;74983;51.084;11.086;2024-03-08T13:41:12;28.75;;;14.50;;
84759;SDS011;74983;51.084;11.086;2024-03-08T13:43:39;23.52;;;12.57;;
84759;SDS011;74983;51.084;11.086;2024-03-08T13:46:05;24.55;;;13.45;;
84759;SDS011;74983;51.084;11.086;2024-03-08T13:48:32;25.85;;;14.63;;
84759;SDS011;74983;51.084;11.086;2024-03-08T13:50:58;23.55;;;13.30;;
84759;SDS011;74983;51.084;11.086;2024-03-08T13:53:23;22.67;;;11.87;;
84759;SDS011;74983;51.084;11.086;2024-03-08T13:55:51;24.40;;;12.15;;
84759;SDS011;74983;51.084;11.086;2024-03-08T13:58:16;27.27;;;14.65;;
84759;SDS011;74983;51.084;11.086;2024-03-08T14:00:42;26.70;;;13.10;;
84759;SDS011;74983;51.084;11.086;2024-03-08T14:03:09;23.40;;;13.32;;
84759;SDS011;74983;51.084;11.086;2024-03-08T14:05:40;26.08;;;12.57;;
84759;SDS011;74983;51.084;11.086;2024-03-08T14:10:35;26.00;;;13.03;;
84759;SDS011;74983;51.084;11.086;2024-03-08T14:13:02;22.33;;;12.32;;
84759;SDS011;74983;51.084;11.086;2024-03-08T14:15:30;20.08;;;11.68;;
84759;SDS011;74983;51.084;11.086;2024-03-08T14:17:56;25.27;;;12.88;;
84759;SDS011;74983;51.084;11.086;2024-03-08T14:20:22;20.40;;;10.75;;
84759;SDS011;74983;51.084;11.086;2024-03-08T14:22:50;21.23;;;12.30;;
84759;SDS011;74983;51.084;11.086;2024-03-08T14:25:16;24.98;;;14.32;;
84759;SDS011;74983;51.084;11.086;2024-03-08T14:27:43;22.25;;;12.88;;
84759;SDS011;74983;51.084;11.086;2024-03-08T14:30:09;18.90;;;11.48;;
84759;SDS011;74983;51.084;11.086;2024-03-08T14:32:35;19.70;;;10.77;;
84759;SDS011;74983;51.084;11.086;2024-03-08T14:35:03;21.00;;;12.65;;
84759;SDS011;74983;51.084;11.086;2024-03-08T14:37:29;23.05;;;12.15;;
84759;SDS011;74983;51.084;11.086;2024-03-08T14:39:54;20.43;;;11.33;;
84759;SDS011;74983;51.084;11.086;2024-03-08T14:42:20;24.05;;;12.82;;
84759;SDS011;74983;51.084;11.086;2024-03-08T14:44:46;26.58;;;13.05;;
84759;SDS011;74983;51.084;11.086;2024-03-08T14:47:16;21.58;;;11.82;;
84759;SDS011;74983;51.084;11.086;2024-03-08T14:49:41;20.40;;;11.32;;